< < Back
Terminal Aerodrome Forecast


Current Version              Previous Versions:   1  2  3  4  5  6  7  8  9  

Terminal Aerodrome Forecast

869
FTUS44 KBMX 300500
TAFTCL
TAF
KTCL 300523Z 3006/3106 36005KT P6SM SKC=



Latest METAR

330
SAUS70 KWBC 310900 RRH
MTRTCL
METAR KTCL 310853Z AUTO 00000KT 8SM CLR 19/17 A3003 RMK AO2 SLP166
T01940167 58005


USA.gov is the U.S. government's official web portal to all federal, state and local government web resources and services.